sensor_id;sensor_type;location;lat;lon;timestamp;temperature;humidity
23618;DHT22;18207;32.078;34.818;2023-03-12T00:00:24;24.10;31.30
23618;DHT22;18207;32.078;34.818;2023-03-12T00:02:56;24.00;31.20
23618;DHT22;18207;32.078;34.818;2023-03-12T00:05:27;24.00;31.10
23618;DHT22;18207;32.078;34.818;2023-03-12T00:07:57;24.00;31.00
23618;DHT22;18207;32.078;34.818;2023-03-12T00:10:27;24.00;30.90
23618;DHT22;18207;32.078;34.818;2023-03-12T00:12:58;23.90;30.90
23618;DHT22;18207;32.078;34.818;2023-03-12T00:15:29;23.90;31.00
23618;DHT22;18207;32.078;34.818;2023-03-12T00:18:00;23.90;31.00
23618;DHT22;18207;32.078;34.818;2023-03-12T00:20:31;23.80;31.00
23618;DHT22;18207;32.078;34.818;2023-03-12T00:23:01;23.80;31.00
23618;DHT22;18207;32.078;34.818;2023-03-12T00:25:32;23.80;31.00
23618;DHT22;18207;32.078;34.818;2023-03-12T00:28:02;23.80;31.00
23618;DHT22;18207;32.078;34.818;2023-03-12T00:30:32;23.80;31.00
23618;DHT22;18207;32.078;34.818;2023-03-12T00:33:04;23.70;30.90
23618;DHT22;18207;32.078;34.818;2023-03-12T00:35:35;23.70;30.90
23618;DHT22;18207;32.078;34.818;2023-03-12T00:38:06;23.70;30.90
23618;DHT22;18207;32.078;34.818;2023-03-12T00:40:36;23.70;31.00
23618;DHT22;18207;32.078;34.818;2023-03-12T00:43:07;23.70;30.90
23618;DHT22;18207;32.078;34.818;2023-03-12T00:45:37;23.70;30.90
23618;DHT22;18207;32.078;34.818;2023-03-12T00:48:08;23.70;30.90
23618;DHT22;18207;32.078;34.818;2023-03-12T00:50:38;23.60;30.90
23618;DHT22;18207;32.078;34.818;2023-03-12T00:53:08;23.60;30.90
23618;DHT22;18207;32.078;34.818;2023-03-12T00:55:38;23.60;30.90
23618;DHT22;18207;32.078;34.818;2023-03-12T00:58:09;23.60;30.90
23618;DHT22;18207;32.078;34.818;2023-03-12T01:00:39;23.60;30.90
23618;DHT22;18207;32.078;34.818;2023-03-12T01:03:13;23.50;31.00
23618;DHT22;18207;32.078;34.818;2023-03-12T01:05:45;23.50;31.20
23618;DHT22;18207;32.078;34.818;2023-03-12T01:08:21;23.50;31.10
23618;DHT22;18207;32.078;34.818;2023-03-12T01:10:52;23.50;31.20
23618;DHT22;18207;32.078;34.818;2023-03-12T01:13:22;23.50;31.30
23618;DHT22;18207;32.078;34.818;2023-03-12T01:15:52;23.50;31.40
23618;DHT22;18207;32.078;34.818;2023-03-12T01:18:25;23.50;31.40
23618;DHT22;18207;32.078;34.818;2023-03-12T01:20:55;23.50;31.40
23618;DHT22;18207;32.078;34.818;2023-03-12T01:23:25;23.50;31.40
23618;DHT22;18207;32.078;34.818;2023-03-12T01:25:56;23.40;31.30
23618;DHT22;18207;32.078;34.818;2023-03-12T01:28:26;23.40;31.30
23618;DHT22;18207;32.078;34.818;2023-03-12T01:30:56;23.40;31.30
23618;DHT22;18207;32.078;34.818;2023-03-12T01:33:28;23.40;31.30
23618;DHT22;18207;32.078;34.818;2023-03-12T01:35:58;23.30;31.20
23618;DHT22;18207;32.078;34.818;2023-03-12T01:38:28;23.30;31.20
23618;DHT22;18207;32.078;34.818;2023-03-12T01:40:58;23.20;31.10
23618;DHT22;18207;32.078;34.818;2023-03-12T01:43:30;23.20;31.10
23618;DHT22;18207;32.078;34.818;2023-03-12T01:46:08;23.20;31.10
23618;DHT22;18207;32.078;34.818;2023-03-12T01:48:57;23.20;31.10
23618;DHT22;18207;32.078;34.818;2023-03-12T01:51:34;23.20;31.10
23618;DHT22;18207;32.078;34.818;2023-03-12T01:54:12;23.10;31.00
23618;DHT22;18207;32.078;34.818;2023-03-12T01:56:46;23.10;30.90
23618;DHT22;18207;32.078;34.818;2023-03-12T01:59:20;23.10;30.90
23618;DHT22;18207;32.078;34.818;2023-03-12T02:01:55;23.00;30.80
23618;DHT22;18207;32.078;34.818;2023-03-12T02:04:28;23.00;30.80
23618;DHT22;18207;32.078;34.818;2023-03-12T02:07:04;23.00;30.70
23618;DHT22;18207;32.078;34.818;2023-03-12T02:09:38;23.00;30.70
23618;DHT22;18207;32.078;34.818;2023-03-12T02:12:11;22.90;30.70
23618;DHT22;18207;32.078;34.818;2023-03-12T02:14:41;22.90;30.70
23618;DHT22;18207;32.078;34.818;2023-03-12T02:17:12;22.90;30.70
23618;DHT22;18207;32.078;34.818;2023-03-12T02:19:49;22.80;30.60
23618;DHT22;18207;32.078;34.818;2023-03-12T02:22:24;22.80;30.60
23618;DHT22;18207;32.078;34.818;2023-03-12T02:24:58;22.80;30.70
23618;DHT22;18207;32.078;34.818;2023-03-12T02:27:36;22.80;30.70
23618;DHT22;18207;32.078;34.818;2023-03-12T02:30:10;22.70;30.60
23618;DHT22;18207;32.078;34.818;2023-03-12T02:32:43;22.70;30.60
23618;DHT22;18207;32.078;34.818;2023-03-12T02:35:15;22.70;30.60
23618;DHT22;18207;32.078;34.818;2023-03-12T02:37:49;22.70;30.60
23618;DHT22;18207;32.078;34.818;2023-03-12T02:40:23;22.60;30.50
23618;DHT22;18207;32.078;34.818;2023-03-12T02:42:59;22.60;30.50
23618;DHT22;18207;32.078;34.818;2023-03-12T02:45:32;22.60;30.60
23618;DHT22;18207;32.078;34.818;2023-03-12T02:48:07;22.60;30.60
23618;DHT22;18207;32.078;34.818;2023-03-12T02:50:38;22.50;30.60
23618;DHT22;18207;32.078;34.818;2023-03-12T02:53:08;22.50;30.60
23618;DHT22;18207;32.078;34.818;2023-03-12T02:55:38;22.50;30.70
23618;DHT22;18207;32.078;34.818;2023-03-12T02:58:10;22.50;30.70
23618;DHT22;18207;32.078;34.818;2023-03-12T03:00:40;22.50;30.60
23618;DHT22;18207;32.078;34.818;2023-03-12T03:03:11;22.50;30.70
23618;DHT22;18207;32.078;34.818;2023-03-12T03:05:41;22.40;30.60
23618;DHT22;18207;32.078;34.818;2023-03-12T03:08:10;22.40;30.60
23618;DHT22;18207;32.078;34.818;2023-03-12T03:10:40;22.40;30.60
23618;DHT22;18207;32.078;34.818;2023-03-12T03:13:13;22.30;30.60
23618;DHT22;18207;32.078;34.818;2023-03-12T03:15:43;22.30;30.60
23618;DHT22;18207;32.078;34.818;2023-03-12T03:18:13;22.20;30.50
23618;DHT22;18207;32.078;34.818;2023-03-12T03:20:43;22.20;30.50
23618;DHT22;18207;32.078;34.818;2023-03-12T03:23:14;22.20;30.70
23618;DHT22;18207;32.078;34.818;2023-03-12T03:25:45;22.20;30.70
23618;DHT22;18207;32.078;34.818;2023-03-12T03:28:17;22.20;30.70
23618;DHT22;18207;32.078;34.818;2023-03-12T03:30:48;22.10;30.70
23618;DHT22;18207;32.078;34.818;2023-03-12T03:33:21;22.10;30.70
23618;DHT22;18207;32.078;34.818;2023-03-12T03:35:51;22.10;30.70
23618;DHT22;18207;32.078;34.818;2023-03-12T03:38:26;22.10;30.80
23618;DHT22;18207;32.078;34.818;2023-03-12T03:40:57;22.10;30.80
23618;DHT22;18207;32.078;34.818;2023-03-12T03:43:29;22.10;30.90
23618;DHT22;18207;32.078;34.818;2023-03-12T03:46:01;22.00;30.80
23618;DHT22;18207;32.078;34.818;2023-03-12T03:48:32;22.10;30.90
23618;DHT22;18207;32.078;34.818;2023-03-12T03:51:04;22.10;31.00
23618;DHT22;18207;32.078;34.818;2023-03-12T03:53:39;22.00;30.90
23618;DHT22;18207;32.078;34.818;2023-03-12T03:56:11;22.10;31.10
23618;DHT22;18207;32.078;34.818;2023-03-12T03:58:44;22.00;30.90
23618;DHT22;18207;32.078;34.818;2023-03-12T04:01:15;22.10;30.90
23618;DHT22;18207;32.078;34.818;2023-03-12T04:03:45;22.00;31.40
23618;DHT22;18207;32.078;34.818;2023-03-12T04:06:15;22.10;30.90
23618;DHT22;18207;32.078;34.818;2023-03-12T04:08:46;22.10;30.80
23618;DHT22;18207;32.078;34.818;2023-03-12T04:11:17;22.00;30.80
23618;DHT22;18207;32.078;34.818;2023-03-12T04:13:51;22.10;30.90
23618;DHT22;18207;32.078;34.818;2023-03-12T04:16:21;22.00;30.80
23618;DHT22;18207;32.078;34.818;2023-03-12T04:18:52;22.00;30.90
23618;DHT22;18207;32.078;34.818;2023-03-12T04:21:22;22.10;31.00
23618;DHT22;18207;32.078;34.818;2023-03-12T04:23:52;22.10;31.00
23618;DHT22;18207;32.078;34.818;2023-03-12T04:26:22;22.10;31.00
23618;DHT22;18207;32.078;34.818;2023-03-12T04:28:54;22.10;31.10
23618;DHT22;18207;32.078;34.818;2023-03-12T04:31:25;22.20;31.10
23618;DHT22;18207;32.078;34.818;2023-03-12T04:33:55;22.20;31.10
23618;DHT22;18207;32.078;34.818;2023-03-12T04:36:24;22.20;31.10
23618;DHT22;18207;32.078;34.818;2023-03-12T04:38:55;22.20;31.10
23618;DHT22;18207;32.078;34.818;2023-03-12T04:41:26;22.30;31.30
23618;DHT22;18207;32.078;34.818;2023-03-12T04:43:58;22.30;31.30
23618;DHT22;18207;32.078;34.818;2023-03-12T04:46:28;22.30;31.20
23618;DHT22;18207;32.078;34.818;2023-03-12T04:48:59;22.40;31.30
23618;DHT22;18207;32.078;34.818;2023-03-12T04:51:30;22.50;31.30
23618;DHT22;18207;32.078;34.818;2023-03-12T04:54:01;22.50;31.30
23618;DHT22;18207;32.078;34.818;2023-03-12T04:56:31;22.50;31.80
23618;DHT22;18207;32.078;34.818;2023-03-12T04:59:04;22.60;31.20
23618;DHT22;18207;32.078;34.818;2023-03-12T05:01:35;22.70;31.30
23618;DHT22;18207;32.078;34.818;2023-03-12T05:04:06;22.70;31.20
23618;DHT22;18207;32.078;34.818;2023-03-12T05:06:37;22.80;31.80
23618;DHT22;18207;32.078;34.818;2023-03-12T05:09:07;22.90;31.10
23618;DHT22;18207;32.078;34.818;2023-03-12T05:11:38;23.00;31.10
23618;DHT22;18207;32.078;34.818;2023-03-12T05:14:10;23.10;31.00
23618;DHT22;18207;32.078;34.818;2023-03-12T05:16:41;23.20;31.00
23618;DHT22;18207;32.078;34.818;2023-03-12T05:19:11;23.30;31.00
23618;DHT22;18207;32.078;34.818;2023-03-12T05:21:42;23.40;30.80
23618;DHT22;18207;32.078;34.818;2023-03-12T05:24:14;23.50;30.80
23618;DHT22;18207;32.078;34.818;2023-03-12T05:26:45;23.60;30.60
23618;DHT22;18207;32.078;34.818;2023-03-12T05:29:17;23.70;30.50
23618;DHT22;18207;32.078;34.818;2023-03-12T05:31:47;23.80;30.40
23618;DHT22;18207;32.078;34.818;2023-03-12T05:34:17;23.90;30.30
23618;DHT22;18207;32.078;34.818;2023-03-12T05:36:47;24.00;30.30
23618;DHT22;18207;32.078;34.818;2023-03-12T05:39:16;24.10;30.30
23618;DHT22;18207;32.078;34.818;2023-03-12T05:41:47;24.20;30.30
23618;DHT22;18207;32.078;34.818;2023-03-12T05:44:19;24.30;30.30
23618;DHT22;18207;32.078;34.818;2023-03-12T05:46:49;24.50;30.30
23618;DHT22;18207;32.078;34.818;2023-03-12T05:49:21;24.60;30.30
23618;DHT22;18207;32.078;34.818;2023-03-12T05:51:51;24.80;30.20
23618;DHT22;18207;32.078;34.818;2023-03-12T05:54:21;24.90;30.20
23618;DHT22;18207;32.078;34.818;2023-03-12T05:56:51;25.00;30.10
23618;DHT22;18207;32.078;34.818;2023-03-12T05:59:24;25.10;30.00
23618;DHT22;18207;32.078;34.818;2023-03-12T06:01:55;25.30;30.00
23618;DHT22;18207;32.078;34.818;2023-03-12T06:04:25;25.40;29.90
23618;DHT22;18207;32.078;34.818;2023-03-12T06:06:56;25.50;29.80
23618;DHT22;18207;32.078;34.818;2023-03-12T06:09:26;25.70;29.80
23618;DHT22;18207;32.078;34.818;2023-03-12T06:11:55;25.80;29.70
23618;DHT22;18207;32.078;34.818;2023-03-12T06:14:28;25.80;29.60
23618;DHT22;18207;32.078;34.818;2023-03-12T06:16:57;26.00;29.50
23618;DHT22;18207;32.078;34.818;2023-03-12T06:19:28;26.10;29.40
23618;DHT22;18207;32.078;34.818;2023-03-12T06:21:57;26.20;29.30
23618;DHT22;18207;32.078;34.818;2023-03-12T06:24:28;26.30;29.20
23618;DHT22;18207;32.078;34.818;2023-03-12T06:26:58;26.30;29.10
23618;DHT22;18207;32.078;34.818;2023-03-12T06:29:30;26.40;29.00
23618;DHT22;18207;32.078;34.818;2023-03-12T06:31:59;26.50;28.90
23618;DHT22;18207;32.078;34.818;2023-03-12T06:34:29;26.60;28.80
23618;DHT22;18207;32.078;34.818;2023-03-12T06:37:00;26.70;28.70
23618;DHT22;18207;32.078;34.818;2023-03-12T06:39:30;26.80;28.70
23618;DHT22;18207;32.078;34.818;2023-03-12T06:42:01;26.90;28.60
23618;DHT22;18207;32.078;34.818;2023-03-12T06:44:33;27.00;28.50
23618;DHT22;18207;32.078;34.818;2023-03-12T06:47:04;27.00;28.40
23618;DHT22;18207;32.078;34.818;2023-03-12T06:49:34;27.10;28.40
23618;DHT22;18207;32.078;34.818;2023-03-12T06:52:05;27.20;28.30
23618;DHT22;18207;32.078;34.818;2023-03-12T06:54:35;27.30;28.30
23618;DHT22;18207;32.078;34.818;2023-03-12T06:57:05;27.40;28.20
23618;DHT22;18207;32.078;34.818;2023-03-12T06:59:38;27.40;28.10
23618;DHT22;18207;32.078;34.818;2023-03-12T07:02:09;27.50;28.00
23618;DHT22;18207;32.078;34.818;2023-03-12T07:04:39;27.60;28.00
23618;DHT22;18207;32.078;34.818;2023-03-12T07:07:09;27.70;27.90
23618;DHT22;18207;32.078;34.818;2023-03-12T07:09:39;27.70;27.80
23618;DHT22;18207;32.078;34.818;2023-03-12T07:12:09;27.80;27.80
23618;DHT22;18207;32.078;34.818;2023-03-12T07:14:41;27.90;27.80
23618;DHT22;18207;32.078;34.818;2023-03-12T07:17:11;28.00;27.90
23618;DHT22;18207;32.078;34.818;2023-03-12T07:19:42;28.00;27.80
23618;DHT22;18207;32.078;34.818;2023-03-12T07:22:15;28.10;27.80
23618;DHT22;18207;32.078;34.818;2023-03-12T07:24:45;28.20;27.70
23618;DHT22;18207;32.078;34.818;2023-03-12T07:27:16;28.30;27.70
23618;DHT22;18207;32.078;34.818;2023-03-12T07:29:47;28.40;27.80
23618;DHT22;18207;32.078;34.818;2023-03-12T07:32:17;28.50;27.70
23618;DHT22;18207;32.078;34.818;2023-03-12T07:34:47;28.60;27.70
23618;DHT22;18207;32.078;34.818;2023-03-12T07:37:18;28.70;27.70
23618;DHT22;18207;32.078;34.818;2023-03-12T07:39:48;28.80;27.70
23618;DHT22;18207;32.078;34.818;2023-03-12T07:42:21;28.90;27.60
23618;DHT22;18207;32.078;34.818;2023-03-12T07:44:53;29.10;27.60
23618;DHT22;18207;32.078;34.818;2023-03-12T07:47:23;29.10;27.50
23618;DHT22;18207;32.078;34.818;2023-03-12T07:49:54;29.20;27.50
23618;DHT22;18207;32.078;34.818;2023-03-12T07:52:24;29.40;27.50
23618;DHT22;18207;32.078;34.818;2023-03-12T07:54:55;29.50;27.50
23618;DHT22;18207;32.078;34.818;2023-03-12T07:57:25;29.50;27.30
23618;DHT22;18207;32.078;34.818;2023-03-12T07:59:57;29.60;27.20
23618;DHT22;18207;32.078;34.818;2023-03-12T08:02:27;29.60;27.10
23618;DHT22;18207;32.078;34.818;2023-03-12T08:04:58;29.70;27.10
23618;DHT22;18207;32.078;34.818;2023-03-12T08:07:29;29.80;27.00
23618;DHT22;18207;32.078;34.818;2023-03-12T08:10:03;29.90;27.00
23618;DHT22;18207;32.078;34.818;2023-03-12T08:12:36;29.90;27.10
23618;DHT22;18207;32.078;34.818;2023-03-12T08:15:10;30.00;27.20
23618;DHT22;18207;32.078;34.818;2023-03-12T08:17:41;30.00;27.20
23618;DHT22;18207;32.078;34.818;2023-03-12T08:20:12;30.10;27.30
23618;DHT22;18207;32.078;34.818;2023-03-12T08:22:42;30.20;27.30
23618;DHT22;18207;32.078;34.818;2023-03-12T08:25:12;30.30;27.30
23618;DHT22;18207;32.078;34.818;2023-03-12T08:27:42;30.30;27.30
23618;DHT22;18207;32.078;34.818;2023-03-12T08:30:15;30.40;27.40
23618;DHT22;18207;32.078;34.818;2023-03-12T08:32:46;30.40;27.30
23618;DHT22;18207;32.078;34.818;2023-03-12T08:35:16;30.50;27.30
23618;DHT22;18207;32.078;34.818;2023-03-12T08:37:47;30.50;27.30
23618;DHT22;18207;32.078;34.818;2023-03-12T08:40:17;30.60;27.30
23618;DHT22;18207;32.078;34.818;2023-03-12T08:42:47;30.60;27.20
23618;DHT22;18207;32.078;34.818;2023-03-12T08:45:20;30.70;27.30
23618;DHT22;18207;32.078;34.818;2023-03-12T08:47:50;30.70;27.30
23618;DHT22;18207;32.078;34.818;2023-03-12T08:50:20;30.70;27.40
23618;DHT22;18207;32.078;34.818;2023-03-12T08:52:52;30.80;27.50
23618;DHT22;18207;32.078;34.818;2023-03-12T08:55:23;30.80;27.60
23618;DHT22;18207;32.078;34.818;2023-03-12T08:57:54;30.80;27.60
23618;DHT22;18207;32.078;34.818;2023-03-12T09:00:27;30.90;27.70
23618;DHT22;18207;32.078;34.818;2023-03-12T09:02:58;30.90;27.70
23618;DHT22;18207;32.078;34.818;2023-03-12T09:05:28;30.90;27.70
23618;DHT22;18207;32.078;34.818;2023-03-12T09:07:58;30.90;27.80
23618;DHT22;18207;32.078;34.818;2023-03-12T09:10:29;30.90;27.80
23618;DHT22;18207;32.078;34.818;2023-03-12T09:13:00;30.90;27.80
23618;DHT22;18207;32.078;34.818;2023-03-12T09:15:32;30.90;27.80
23618;DHT22;18207;32.078;34.818;2023-03-12T09:18:02;30.90;27.80
23618;DHT22;18207;32.078;34.818;2023-03-12T09:20:33;30.90;27.80
23618;DHT22;18207;32.078;34.818;2023-03-12T09:23:03;30.90;27.80
23618;DHT22;18207;32.078;34.818;2023-03-12T09:25:34;30.90;27.80
23618;DHT22;18207;32.078;34.818;2023-03-12T09:28:03;30.90;27.70
23618;DHT22;18207;32.078;34.818;2023-03-12T09:30:37;30.90;27.70
23618;DHT22;18207;32.078;34.818;2023-03-12T09:33:07;30.80;27.60
23618;DHT22;18207;32.078;34.818;2023-03-12T09:35:38;30.80;27.60
23618;DHT22;18207;32.078;34.818;2023-03-12T09:38:12;30.80;28.10
23618;DHT22;18207;32.078;34.818;2023-03-12T09:40:45;30.80;27.50
23618;DHT22;18207;32.078;34.818;2023-03-12T09:43:21;30.80;27.50
23618;DHT22;18207;32.078;34.818;2023-03-12T09:45:59;30.80;27.50
23618;DHT22;18207;32.078;34.818;2023-03-12T09:48:32;30.70;27.40
23618;DHT22;18207;32.078;34.818;2023-03-12T09:51:07;30.70;27.30
23618;DHT22;18207;32.078;34.818;2023-03-12T09:53:47;30.70;27.30
23618;DHT22;18207;32.078;34.818;2023-03-12T09:56:21;30.70;27.30
23618;DHT22;18207;32.078;34.818;2023-03-12T09:58:51;30.80;27.20
23618;DHT22;18207;32.078;34.818;2023-03-12T10:01:40;30.70;27.10
23618;DHT22;18207;32.078;34.818;2023-03-12T10:04:23;30.70;26.90
23618;DHT22;18207;32.078;34.818;2023-03-12T10:07:27;30.70;26.90
23618;DHT22;18207;32.078;34.818;2023-03-12T10:13:39;30.70;26.60
23618;DHT22;18207;32.078;34.818;2023-03-12T10:16:30;30.70;26.60
23618;DHT22;18207;32.078;34.818;2023-03-12T10:19:36;30.70;26.40
23618;DHT22;18207;32.078;34.818;2023-03-12T10:22:31;30.70;26.30
23618;DHT22;18207;32.078;34.818;2023-03-12T10:25:20;30.60;26.70
23618;DHT22;18207;32.078;34.818;2023-03-12T10:27:58;30.60;26.20
23618;DHT22;18207;32.078;34.818;2023-03-12T10:30:42;30.60;26.20
23618;DHT22;18207;32.078;34.818;2023-03-12T10:33:19;30.60;26.30
23618;DHT22;18207;32.078;34.818;2023-03-12T10:35:54;30.60;26.20
23618;DHT22;18207;32.078;34.818;2023-03-12T10:38:28;30.60;26.20
23618;DHT22;18207;32.078;34.818;2023-03-12T10:40:59;30.50;26.10
23618;DHT22;18207;32.078;34.818;2023-03-12T10:43:30;30.50;26.10
23618;DHT22;18207;32.078;34.818;2023-03-12T10:46:09;30.50;26.10
23618;DHT22;18207;32.078;34.818;2023-03-12T10:49:29;30.50;26.00
23618;DHT22;18207;32.078;34.818;2023-03-12T10:52:09;30.50;25.90
23618;DHT22;18207;32.078;34.818;2023-03-12T10:54:45;30.50;25.90
23618;DHT22;18207;32.078;34.818;2023-03-12T10:57:17;30.50;25.90
23618;DHT22;18207;32.078;34.818;2023-03-12T10:59:48;30.50;25.90
23618;DHT22;18207;32.078;34.818;2023-03-12T11:02:32;30.50;25.90
23618;DHT22;18207;32.078;34.818;2023-03-12T11:05:20;30.40;25.70
23618;DHT22;18207;32.078;34.818;2023-03-12T11:07:54;30.40;25.60
23618;DHT22;18207;32.078;34.818;2023-03-12T11:10:25;30.40;25.60
23618;DHT22;18207;32.078;34.818;2023-03-12T11:13:21;30.40;25.70
23618;DHT22;18207;32.078;34.818;2023-03-12T11:15:53;30.40;25.50
23618;DHT22;18207;32.078;34.818;2023-03-12T11:18:27;30.30;25.50
23618;DHT22;18207;32.078;34.818;2023-03-12T11:21:17;30.40;25.50
23618;DHT22;18207;32.078;34.818;2023-03-12T11:24:06;30.30;25.20
23618;DHT22;18207;32.078;34.818;2023-03-12T11:26:48;30.30;25.30
23618;DHT22;18207;32.078;34.818;2023-03-12T11:29:26;30.30;25.30
23618;DHT22;18207;32.078;34.818;2023-03-12T11:32:05;30.30;25.40
23618;DHT22;18207;32.078;34.818;2023-03-12T11:34:43;30.20;25.30
23618;DHT22;18207;32.078;34.818;2023-03-12T11:37:24;30.20;25.40
23618;DHT22;18207;32.078;34.818;2023-03-12T11:40:13;30.20;25.40
23618;DHT22;18207;32.078;34.818;2023-03-12T11:43:08;30.10;25.30
23618;DHT22;18207;32.078;34.818;2023-03-12T11:46:22;30.10;25.40
23618;DHT22;18207;32.078;34.818;2023-03-12T11:49:12;30.10;25.40
23618;DHT22;18207;32.078;34.818;2023-03-12T11:51:58;30.10;25.40
23618;DHT22;18207;32.078;34.818;2023-03-12T11:54:52;30.00;25.40
23618;DHT22;18207;32.078;34.818;2023-03-12T11:57:56;30.00;25.40
23618;DHT22;18207;32.078;34.818;2023-03-12T12:00:40;30.00;25.40
23618;DHT22;18207;32.078;34.818;2023-03-12T12:03:53;30.00;25.40
23618;DHT22;18207;32.078;34.818;2023-03-12T12:06:53;29.90;25.40
23618;DHT22;18207;32.078;34.818;2023-03-12T12:09:39;29.90;25.40
23618;DHT22;18207;32.078;34.818;2023-03-12T12:12:27;29.90;25.60
23618;DHT22;18207;32.078;34.818;2023-03-12T12:15:18;29.90;25.70
23618;DHT22;18207;32.078;34.818;2023-03-12T12:18:01;29.80;25.60
23618;DHT22;18207;32.078;34.818;2023-03-12T12:20:46;29.80;25.60
23618;DHT22;18207;32.078;34.818;2023-03-12T12:23:28;29.80;25.70
23618;DHT22;18207;32.078;34.818;2023-03-12T12:26:10;29.80;25.70
23618;DHT22;18207;32.078;34.818;2023-03-12T12:29:11;29.70;25.60
23618;DHT22;18207;32.078;34.818;2023-03-12T12:31:56;29.70;25.50
23618;DHT22;18207;32.078;34.818;2023-03-12T12:34:46;29.70;25.60
23618;DHT22;18207;32.078;34.818;2023-03-12T12:37:41;29.60;25.50
23618;DHT22;18207;32.078;34.818;2023-03-12T12:40:20;29.70;25.60
23618;DHT22;18207;32.078;34.818;2023-03-12T12:43:04;29.60;25.60
23618;DHT22;18207;32.078;34.818;2023-03-12T12:45:45;29.60;25.60
23618;DHT22;18207;32.078;34.818;2023-03-12T12:48:24;29.60;25.60
23618;DHT22;18207;32.078;34.818;2023-03-12T12:50:57;29.60;25.60
23618;DHT22;18207;32.078;34.818;2023-03-12T12:53:36;29.50;25.50
23618;DHT22;18207;32.078;34.818;2023-03-12T12:56:17;29.50;25.60
23618;DHT22;18207;32.078;34.818;2023-03-12T12:59:15;29.50;25.60
23618;DHT22;18207;32.078;34.818;2023-03-12T13:01:59;29.40;25.60
23618;DHT22;18207;32.078;34.818;2023-03-12T13:04:35;29.40;25.60
23618;DHT22;18207;32.078;34.818;2023-03-12T13:07:29;29.40;25.60
23618;DHT22;18207;32.078;34.818;2023-03-12T13:10:06;29.30;25.60
23618;DHT22;18207;32.078;34.818;2023-03-12T13:12:57;29.30;25.60
23618;DHT22;18207;32.078;34.818;2023-03-12T13:15:36;29.30;25.60
23618;DHT22;18207;32.078;34.818;2023-03-12T13:18:23;29.20;25.60
23618;DHT22;18207;32.078;34.818;2023-03-12T13:21:20;29.20;25.60
23618;DHT22;18207;32.078;34.818;2023-03-12T13:24:01;29.20;25.60
23618;DHT22;18207;32.078;34.818;2023-03-12T13:26:50;29.10;25.70
23618;DHT22;18207;32.078;34.818;2023-03-12T13:29:36;29.00;25.70
23618;DHT22;18207;32.078;34.818;2023-03-12T13:32:19;29.00;25.70
23618;DHT22;18207;32.078;34.818;2023-03-12T13:35:36;29.00;25.70
23618;DHT22;18207;32.078;34.818;2023-03-12T13:38:22;28.90;25.60
23618;DHT22;18207;32.078;34.818;2023-03-12T13:41:06;28.90;25.60
23618;DHT22;18207;32.078;34.818;2023-03-12T13:43:50;28.90;25.80
23618;DHT22;18207;32.078;34.818;2023-03-12T13:46:38;28.80;25.80
23618;DHT22;18207;32.078;34.818;2023-03-12T13:49:17;28.80;25.80
23618;DHT22;18207;32.078;34.818;2023-03-12T13:51:59;28.80;25.90
23618;DHT22;18207;32.078;34.818;2023-03-12T13:54:44;28.70;25.90
23618;DHT22;18207;32.078;34.818;2023-03-12T13:57:33;28.70;26.00
23618;DHT22;18207;32.078;34.818;2023-03-12T14:00:16;28.70;26.00
23618;DHT22;18207;32.078;34.818;2023-03-12T14:02:52;28.60;26.00
23618;DHT22;18207;32.078;34.818;2023-03-12T14:05:27;28.70;26.10
23618;DHT22;18207;32.078;34.818;2023-03-12T14:08:22;28.60;26.10
23618;DHT22;18207;32.078;34.818;2023-03-12T14:11:15;28.60;26.10
23618;DHT22;18207;32.078;34.818;2023-03-12T14:14:22;28.60;26.00
23618;DHT22;18207;32.078;34.818;2023-03-12T14:17:18;28.60;26.10
23618;DHT22;18207;32.078;34.818;2023-03-12T14:19:56;28.50;26.00
23618;DHT22;18207;32.078;34.818;2023-03-12T14:22:31;28.50;26.00
23618;DHT22;18207;32.078;34.818;2023-03-12T14:25:10;28.50;26.10
23618;DHT22;18207;32.078;34.818;2023-03-12T14:27:47;28.40;26.20
23618;DHT22;18207;32.078;34.818;2023-03-12T14:30:22;28.40;26.20
23618;DHT22;18207;32.078;34.818;2023-03-12T14:32:58;28.40;26.20
23618;DHT22;18207;32.078;34.818;2023-03-12T14:35:36;28.40;26.20
23618;DHT22;18207;32.078;34.818;2023-03-12T14:38:15;28.40;26.30
23618;DHT22;18207;32.078;34.818;2023-03-12T14:40:52;28.40;26.30
23618;DHT22;18207;32.078;34.818;2023-03-12T14:43:33;28.40;26.40
23618;DHT22;18207;32.078;34.818;2023-03-12T14:46:12;28.30;26.40
23618;DHT22;18207;32.078;34.818;2023-03-12T14:48:46;28.30;26.30
23618;DHT22;18207;32.078;34.818;2023-03-12T14:51:23;28.30;26.40
23618;DHT22;18207;32.078;34.818;2023-03-12T14:53:55;28.30;26.40
23618;DHT22;18207;32.078;34.818;2023-03-12T14:56:32;28.30;26.40
23618;DHT22;18207;32.078;34.818;2023-03-12T14:59:20;28.30;26.40
23618;DHT22;18207;32.078;34.818;2023-03-12T15:01:58;28.20;26.30
23618;DHT22;18207;32.078;34.818;2023-03-12T15:04:30;28.20;26.30
23618;DHT22;18207;32.078;34.818;2023-03-12T15:07:04;28.20;26.40
23618;DHT22;18207;32.078;34.818;2023-03-12T15:09:41;28.20;26.40
23618;DHT22;18207;32.078;34.818;2023-03-12T15:12:18;28.20;26.30
23618;DHT22;18207;32.078;34.818;2023-03-12T15:14:54;28.10;26.30
23618;DHT22;18207;32.078;34.818;2023-03-12T15:17:31;28.10;26.30
23618;DHT22;18207;32.078;34.818;2023-03-12T15:20:04;28.10;26.30
23618;DHT22;18207;32.078;34.818;2023-03-12T15:22:36;28.10;26.30
23618;DHT22;18207;32.078;34.818;2023-03-12T15:25:20;28.10;26.30
23618;DHT22;18207;32.078;34.818;2023-03-12T15:28:05;28.00;26.30
23618;DHT22;18207;32.078;34.818;2023-03-12T15:30:39;28.00;26.30
23618;DHT22;18207;32.078;34.818;2023-03-12T15:33:11;28.00;26.30
23618;DHT22;18207;32.078;34.818;2023-03-12T15:35:59;28.00;26.40
23618;DHT22;18207;32.078;34.818;2023-03-12T15:38:33;27.90;26.30
23618;DHT22;18207;32.078;34.818;2023-03-12T15:41:07;27.90;26.40
23618;DHT22;18207;32.078;34.818;2023-03-12T15:43:38;27.90;26.40
23618;DHT22;18207;32.078;34.818;2023-03-12T15:46:16;27.90;26.40
23618;DHT22;18207;32.078;34.818;2023-03-12T15:48:49;27.90;26.40
23618;DHT22;18207;32.078;34.818;2023-03-12T15:51:30;27.80;26.40
23618;DHT22;18207;32.078;34.818;2023-03-12T15:54:03;27.80;26.50
23618;DHT22;18207;32.078;34.818;2023-03-12T15:56:35;27.80;26.50
23618;DHT22;18207;32.078;34.818;2023-03-12T15:59:19;27.80;26.50
23618;DHT22;18207;32.078;34.818;2023-03-12T16:01:55;27.70;26.50
23618;DHT22;18207;32.078;34.818;2023-03-12T16:04:26;27.70;26.50
23618;DHT22;18207;32.078;34.818;2023-03-12T16:06:55;27.70;26.50
23618;DHT22;18207;32.078;34.818;2023-03-12T16:09:28;27.70;26.60